Time;durP1;ratioP1;P1;durP2;ratioP2;P2;SDS_P1;SDS_P2;PMS_P1;PMS_P2;Temp;Humidity;BMP_temperature;BMP_pressure;BME280_temperature;BME280_humidity;BME280_pressure;Samples;Min_cycle;Max_cycle;Signal;HPM_P1;HPM_P2
2023/11/06 00:03:12;;;;;;;6.90;3.13;;;;;;;8.99;86.92;98184.72;10446032;28;20052;-81
2023/11/06 00:08:15;;;;;;;5.68;2.00;;;;;;;8.88;88.34;98191.22;10446562;28;20052;-81
2023/11/06 00:13:20;;;;;;;7.10;2.30;;;;;;;8.59;91.87;98179.19;10445720;28;20067;-81
2023/11/06 00:18:23;;;;;;;4.53;2.33;;;;;;;8.53;93.81;98187.88;10440084;28;20519;-82
2023/11/06 00:23:26;;;;;;;6.38;2.60;;;;;;;8.67;94.07;98196.25;10448504;28;20040;-80
2023/11/06 00:28:31;;;;;;;4.57;2.50;;;;;;;8.54;93.62;98196.72;10455422;28;20045;-78
2023/11/06 00:33:34;;;;;;;13.10;3.30;;;;;;;8.77;93.04;98202.28;10439118;28;20049;-78
2023/11/06 00:38:37;;;;;;;6.38;2.20;;;;;;;8.63;93.49;98216.31;10430504;28;20057;-78
2023/11/06 00:43:42;;;;;;;5.68;2.20;;;;;;;8.65;91.34;98209.78;10452194;28;20048;-77
2023/11/06 00:48:45;;;;;;;10.07;2.08;;;;;;;8.39;93.94;98223.22;10449090;28;20048;-81
2023/11/06 00:53:48;;;;;;;6.20;3.40;;;;;;;7.89;100.00;98254.28;10461057;28;20071;-78
2023/11/06 00:58:52;;;;;;;8.75;3.35;;;;;;;7.88;100.00;98238.44;10454000;28;20526;-80
2023/11/06 01:03:57;;;;;;;9.98;4.10;;;;;;;7.82;100.00;98239.91;10452997;28;20052;-80
2023/11/06 01:09:00;;;;;;;17.55;5.35;;;;;;;8.01;100.00;98246.84;10456119;28;20057;-79
2023/11/06 01:14:05;;;;;;;5.00;2.42;;;;;;;7.87;100.00;98256.31;10451965;28;20435;-79
2023/11/06 01:19:08;;;;;;;7.45;3.30;;;;;;;8.20;100.00;98253.78;10449102;28;20112;-79
2023/11/06 01:24:12;;;;;;;6.30;2.30;;;;;;;7.87;100.00;98272.34;10440696;28;20645;-80
2023/11/06 01:29:16;;;;;;;6.43;2.88;;;;;;;8.15;100.00;98275.66;10453323;28;20049;-80
2023/11/06 01:34:19;;;;;;;5.68;2.00;;;;;;;8.07;99.45;98309.53;10452582;28;20419;-78
2023/11/06 01:39:22;;;;;;;8.35;3.30;;;;;;;8.12;98.86;98277.81;10444354;28;20045;-78
2023/11/06 01:44:26;;;;;;;5.38;4.03;;;;;;;8.24;97.54;98286.38;10456688;28;20041;-76
2023/11/06 01:49:29;;;;;;;10.73;2.67;;;;;;;8.42;95.16;98288.94;10440181;28;20041;-78
2023/11/06 01:54:32;;;;;;;8.88;2.50;;;;;;;8.54;94.11;98299.25;10441358;28;20056;-80
2023/11/06 01:59:37;;;;;;;9.25;3.08;;;;;;;8.34;94.80;98304.00;10439008;28;20056;-79
2023/11/06 02:04:47;;;;;;;8.95;2.83;;;;;;;8.72;92.11;98312.53;10444357;28;20045;-80
2023/11/06 02:09:50;;;;;;;2.92;2.38;;;;;;;8.68;90.83;98321.03;10448437;28;20808;-80
2023/11/06 02:14:56;;;;;;;6.18;2.67;;;;;;;8.53;90.78;98323.47;10448841;28;20045;-81
2023/11/06 02:20:00;;;;;;;8.93;2.38;;;;;;;8.85;88.93;98322.75;10438537;28;20045;-81
2023/11/06 02:25:04;;;;;;;5.35;2.80;;;;;;;8.90;88.50;98323.09;10440731;28;20132;-81
2023/11/06 02:30:08;;;;;;;1.70;1.55;;;;;;;8.83;88.79;98314.03;10453357;28;20056;-81
2023/11/06 02:35:11;;;;;;;5.88;2.03;;;;;;;8.75;88.55;98333.59;10450389;28;20061;-80
2023/11/06 02:40:17;;;;;;;9.77;2.08;;;;;;;8.97;87.98;98339.34;10446187;28;20059;-79
2023/11/06 02:45:19;;;;;;;3.95;1.92;;;;;;;9.11;87.41;98328.00;10453625;28;20045;-81
2023/11/06 02:50:22;;;;;;;11.57;2.30;;;;;;;8.88;88.82;98351.03;10447226;28;20049;-81
2023/11/06 02:55:27;;;;;;;5.43;2.00;;;;;;;8.97;87.50;98363.47;10452591;28;20574;-75
2023/11/06 03:00:30;;;;;;;9.43;1.80;;;;;;;8.98;88.22;98360.59;10444294;28;20045;-81
2023/11/06 03:05:33;;;;;;;9.80;1.90;;;;;;;8.72;88.75;98375.91;10448236;28;20055;-80
2023/11/06 03:10:38;;;;;;;6.82;1.92;;;;;;;9.34;86.42;98381.78;10437493;28;20094;-79
2023/11/06 03:15:41;;;;;;;6.15;2.80;;;;;;;8.87;89.39;98381.50;10436071;28;20049;-81
2023/11/06 03:20:44;;;;;;;4.07;2.38;;;;;;;8.98;89.86;98413.31;10437494;28;20049;-81
2023/11/06 03:25:48;;;;;;;2.65;1.88;;;;;;;8.17;96.01;98414.53;10437936;28;20048;-79
2023/11/06 03:30:52;;;;;;;5.60;2.22;;;;;;;8.54;93.59;98426.84;10437482;28;20072;-79
2023/11/06 03:35:55;;;;;;;4.50;1.92;;;;;;;8.31;96.02;98415.78;10439053;28;20052;-79
2023/11/06 03:41:00;;;;;;;5.15;2.33;;;;;;;8.94;92.18;98423.53;10435449;28;20045;-81
2023/11/06 03:46:03;;;;;;;5.97;2.30;;;;;;;8.67;94.45;98429.94;10433919;28;20057;-81
2023/11/06 03:51:08;;;;;;;5.85;1.88;;;;;;;9.09;91.24;98433.63;10431144;28;20052;-81
2023/11/06 03:56:13;;;;;;;6.05;2.47;;;;;;;9.05;91.25;98428.59;10431462;28;20048;-79
2023/11/06 04:01:16;;;;;;;2.92;1.60;;;;;;;8.53;94.24;98436.72;10431044;28;20040;-80
2023/11/06 04:06:19;;;;;;;6.55;2.20;;;;;;;8.63;93.66;98446.47;10440662;28;20716;-80
2023/11/06 04:11:24;;;;;;;3.33;2.38;;;;;;;8.83;91.53;98461.28;10449176;28;20080;-80
2023/11/06 04:16:27;;;;;;;2.58;1.73;;;;;;;8.57;92.26;98461.31;10447905;28;20044;-81
2023/11/06 04:21:30;;;;;;;6.22;3.15;;;;;;;8.55;92.29;98469.47;10433196;28;20060;-79
2023/11/06 04:26:34;;;;;;;9.13;2.75;;;;;;;8.65;92.05;98476.59;10440989;28;21168;-79
2023/11/06 04:31:37;;;;;;;9.35;2.60;;;;;;;8.69;91.91;98489.47;10451769;28;20060;-79
2023/11/06 04:36:40;;;;;;;8.07;2.80;;;;;;;8.78;90.35;98485.88;10445750;28;20060;-78
2023/11/06 04:41:44;;;;;;;7.20;2.80;;;;;;;8.89;89.13;98500.81;10445318;28;20535;-78
2023/11/06 04:46:47;;;;;;;8.35;2.95;;;;;;;8.79;89.00;98508.13;10445405;28;20170;-80
2023/11/06 04:51:50;;;;;;;5.43;2.83;;;;;;;8.49;91.48;98504.91;10444203;28;20048;-79
2023/11/06 04:56:55;;;;;;;7.35;2.95;;;;;;;8.89;88.87;98508.00;10436237;28;20143;-79
2023/11/06 05:01:58;;;;;;;9.43;2.38;;;;;;;8.59;89.72;98508.31;10444301;28;20528;-79
2023/11/06 05:07:02;;;;;;;3.28;2.55;;;;;;;8.69;88.43;98523.44;10447192;28;20728;-77
2023/11/06 05:12:07;;;;;;;3.22;2.53;;;;;;;8.95;87.77;98512.72;10440823;28;20045;-77
2023/11/06 05:17:10;;;;;;;8.07;2.80;;;;;;;8.94;89.42;98519.94;10447920;28;20056;-78
2023/11/06 05:22:13;;;;;;;9.18;3.35;;;;;;;8.16;98.76;98550.09;10452447;28;20049;-79
2023/11/06 05:27:21;;;;;;;8.23;4.40;;;;;;;7.78;100.00;98539.69;10451880;28;20488;-80
2023/11/06 05:32:24;;;;;;;9.27;3.53;;;;;;;7.60;100.00;98543.19;10453794;28;21240;-78
2023/11/06 05:37:27;;;;;;;4.55;3.72;;;;;;;7.69;100.00;98550.31;10470002;28;20049;-79
2023/11/06 05:42:31;;;;;;;5.18;2.75;;;;;;;7.74;100.00;98555.19;10471645;28;20071;-79
2023/11/06 05:47:34;;;;;;;10.27;2.63;;;;;;;7.82;100.00;98575.84;10465836;28;20055;-81
2023/11/06 05:52:39;;;;;;;3.80;1.85;;;;;;;7.94;100.00;98569.28;10458066;28;20059;-78
2023/11/06 05:57:44;;;;;;;14.75;3.80;;;;;;;8.03;98.25;98591.56;10466276;28;20094;-78
2023/11/06 06:02:46;;;;;;;5.32;3.25;;;;;;;8.24;95.88;98599.31;10459274;28;20083;-79
2023/11/06 06:07:49;;;;;;;6.53;2.85;;;;;;;8.29;95.47;98605.06;10459117;28;20064;-79
2023/11/06 06:12:53;;;;;;;8.23;4.13;;;;;;;8.35;94.35;98623.16;10463562;28;20047;-79
2023/11/06 06:17:56;;;;;;;9.63;3.13;;;;;;;8.37;93.15;98624.69;10462420;28;20044;-79
2023/11/06 06:22:59;;;;;;;7.72;2.50;;;;;;;8.40;92.12;98636.91;10470697;28;20349;-80
2023/11/06 06:28:04;;;;;;;5.97;2.70;;;;;;;8.51;90.09;98636.72;10456703;28;20074;-78
2023/11/06 06:33:07;;;;;;;4.13;2.60;;;;;;;8.29;89.00;98646.00;10469125;28;20053;-76
2023/11/06 06:38:11;;;;;;;5.95;1.80;;;;;;;8.50;87.96;98656.44;10472965;28;20063;-79
2023/11/06 06:43:15;;;;;;;5.53;2.85;;;;;;;8.60;87.13;98659.88;10472390;28;20699;-79
2023/11/06 06:48:18;;;;;;;8.60;2.90;;;;;;;8.49;87.23;98665.44;10470600;28;20048;-80
2023/11/06 06:53:21;;;;;;;3.42;2.22;;;;;;;8.55;86.48;98678.22;10467854;28;20094;-77
2023/11/06 06:58:26;;;;;;;6.03;2.25;;;;;;;8.68;86.19;98693.06;10465373;28;21067;-80
2023/11/06 07:03:29;;;;;;;1.63;1.30;;;;;;;8.41;86.81;98713.50;10462398;28;20064;-77
2023/11/06 07:08:32;;;;;;;4.63;1.17;;;;;;;8.25;87.76;98710.66;10455340;28;20051;-79
2023/11/06 07:13:37;;;;;;;8.27;1.73;;;;;;;8.42;86.08;98717.88;10458225;28;20041;-79
2023/11/06 07:18:40;;;;;;;7.60;1.63;;;;;;;8.56;85.63;98711.19;10461117;28;20041;-77
2023/11/06 07:23:43;;;;;;;5.30;1.80;;;;;;;8.42;85.98;98715.22;10468160;28;20427;-81
2023/11/06 07:28:47;;;;;;;8.15;1.52;;;;;;;8.33;85.35;98732.97;10448303;28;20139;-81
2023/11/06 07:33:50;;;;;;;4.68;1.02;;;;;;;8.37;85.89;98726.34;10438787;28;20044;-80
2023/11/06 07:38:53;;;;;;;6.20;1.10;;;;;;;8.69;83.63;98740.25;10436068;28;20183;-80
2023/11/06 07:43:58;;;;;;;1.77;1.13;;;;;;;8.37;85.75;98746.91;10445687;28;20044;-80
2023/11/06 07:49:01;;;;;;;7.85;1.33;;;;;;;8.29;85.58;98763.72;10448246;28;20053;-78
2023/11/06 07:54:04;;;;;;;5.88;0.70;;;;;;;8.33;84.73;98765.09;10436998;28;20059;-77
2023/11/06 07:59:08;;;;;;;5.65;1.40;;;;;;;8.70;84.01;98768.72;10434244;28;20053;-79
2023/11/06 08:04:11;;;;;;;4.55;1.40;;;;;;;8.58;84.47;98778.75;10437371;28;20053;-78
2023/11/06 08:09:14;;;;;;;8.98;1.52;;;;;;;8.57;84.39;98785.13;10427763;28;20049;-76
2023/11/06 08:14:19;;;;;;;4.57;1.17;;;;;;;8.79;82.90;98783.84;10436560;28;20049;-81
2023/11/06 08:19:22;;;;;;;3.90;1.60;;;;;;;8.54;84.46;98798.81;10443033;28;20048;-78
2023/11/06 08:24:25;;;;;;;6.70;1.45;;;;;;;8.75;82.98;98802.06;10442738;28;20361;-79
2023/11/06 08:29:30;;;;;;;5.00;1.50;;;;;;;8.73;83.39;98811.25;10449151;28;20072;-80
2023/11/06 08:34:34;;;;;;;7.60;2.40;;;;;;;8.83;83.66;98828.06;10440449;28;20518;-79
2023/11/06 08:39:41;;;;;;;10.95;1.50;;;;;;;8.89;82.98;98829.31;10441898;28;20641;-77
2023/11/06 08:44:46;;;;;;;4.75;1.58;;;;;;;8.74;82.51;98847.72;10436448;28;20052;-79
2023/11/06 08:49:49;;;;;;;15.05;2.28;;;;;;;9.19;81.98;98854.91;10440221;28;20049;-81
2023/11/06 08:54:52;;;;;;;8.75;1.80;;;;;;;9.00;81.32;98864.75;10447813;28;20680;-80
2023/11/06 08:59:57;;;;;;;12.05;1.85;;;;;;;9.14;81.14;98849.16;10444888;28;20045;-79
2023/11/06 09:04:59;;;;;;;12.60;1.95;;;;;;;9.20;79.21;98856.56;10421927;28;20052;-79
2023/11/06 09:10:02;;;;;;;12.60;2.45;;;;;;;9.64;77.19;98870.03;10448416;28;20520;-77
2023/11/06 09:15:10;;;;;;;14.50;2.60;;;;;;;9.44;77.77;98867.50;10443074;28;20040;-80
2023/11/06 09:20:13;;;;;;;13.00;1.67;;;;;;;9.48;77.42;98887.63;10450978;28;20123;-80
2023/11/06 09:25:16;;;;;;;15.32;1.45;;;;;;;9.30;77.92;98897.53;10435547;28;20052;-80
2023/11/06 09:30:20;;;;;;;8.90;1.80;;;;;;;9.78;76.40;98890.06;10449675;28;20044;-78
2023/11/06 09:35:24;;;;;;;6.35;1.65;;;;;;;9.76;76.50;98889.38;10465307;28;20044;-78
2023/11/06 09:40:29;;;;;;;11.75;2.55;;;;;;;9.79;74.73;98907.84;10439186;28;20412;-77
2023/11/06 09:45:34;;;;;;;12.80;2.42;;;;;;;9.98;75.50;98896.94;10452467;28;20536;-79
2023/11/06 09:50:42;;;;;;;8.68;1.75;;;;;;;9.52;76.18;98904.28;10446212;28;20499;-78
2023/11/06 09:55:46;;;;;;;6.68;1.77;;;;;;;9.68;74.62;98922.31;10438086;28;20049;-81
2023/11/06 10:00:51;;;;;;;8.25;2.03;;;;;;;9.92;73.31;98921.72;10441770;28;20475;-81
2023/11/06 10:05:54;;;;;;;6.22;1.52;;;;;;;9.76;73.08;98943.00;10453558;28;20052;-78
2023/11/06 10:11:01;;;;;;;8.02;1.73;;;;;;;9.97;73.05;98940.03;10460789;28;20045;-76
2023/11/06 10:16:21;;;;;;;8.65;1.67;;;;;;;10.09;72.01;98947.69;10483686;28;20052;-76
2023/11/06 10:21:28;;;;;;;6.05;1.58;;;;;;;10.81;69.79;98931.34;10458033;28;20262;-79
2023/11/06 10:26:32;;;;;;;10.50;2.22;;;;;;;10.43;70.33;98938.84;10468232;28;20071;-77
2023/11/06 10:31:40;;;;;;;13.02;2.65;;;;;;;10.15;70.86;98940.84;10462627;28;20047;-81
2023/11/06 10:36:44;;;;;;;7.75;2.05;;;;;;;10.66;68.57;98949.88;10436482;28;20045;-81
2023/11/06 10:41:47;;;;;;;11.18;1.73;;;;;;;10.27;69.60;98947.63;10463395;28;20036;-80
2023/11/06 10:46:53;;;;;;;7.82;1.60;;;;;;;10.36;70.54;98952.06;10447923;28;20127;-78
2023/11/06 10:51:57;;;;;;;8.77;1.50;;;;;;;10.14;69.29;98966.81;10447190;28;20048;-79
2023/11/06 10:57:01;;;;;;;15.10;2.60;;;;;;;9.82;69.87;98956.66;10444032;28;20693;-81
2023/11/06 11:02:07;;;;;;;6.90;1.92;;;;;;;10.35;67.32;98947.69;10440524;28;20052;-80
2023/11/06 11:07:10;;;;;;;5.85;1.42;;;;;;;10.28;67.67;98959.22;10440956;28;20102;-81
2023/11/06 11:12:13;;;;;;;11.55;2.03;;;;;;;10.29;67.89;98967.13;10441802;28;20049;-79
2023/11/06 11:17:19;;;;;;;4.57;1.20;;;;;;;10.51;66.15;98989.91;10435995;28;20492;-80
2023/11/06 11:22:23;;;;;;;6.97;1.35;;;;;;;10.50;65.86;98966.72;10436919;28;20059;-79
2023/11/06 11:27:30;;;;;;;6.57;1.60;;;;;;;11.66;63.15;98964.38;10440632;28;20048;-80
2023/11/06 11:32:49;;;;;;;7.43;1.15;;;;;;;11.10;64.73;98965.03;10433156;28;20512;-79
2023/11/06 11:37:56;;;;;;;14.02;1.77;;;;;;;10.51;66.61;98981.84;10431836;28;20514;-79
2023/11/06 11:43:41;;;;;;;5.88;1.75;;;;;;;11.02;64.65;98961.28;10440990;28;20044;-76
2023/11/06 11:48:51;;;;;;;6.25;1.23;;;;;;;12.67;58.96;98965.00;10435853;28;20053;-79
2023/11/06 11:53:55;;;;;;;5.72;1.73;;;;;;;14.08;54.19;98963.09;10428610;28;20552;-78
2023/11/06 11:58:58;;;;;;;8.40;1.17;;;;;;;13.58;55.51;98974.44;10429507;28;20092;-78
2023/11/06 12:04:23;;;;;;;3.17;1.30;;;;;;;13.58;55.27;98971.75;10440244;28;20066;-78
2023/11/06 12:09:26;;;;;;;4.55;0.85;;;;;;;11.94;61.08;98980.19;10444050;28;20132;-77
2023/11/06 12:14:37;;;;;;;6.00;1.17;;;;;;;12.16;60.17;98994.84;10433183;28;20104;-80
2023/11/06 12:19:43;;;;;;;7.05;1.33;;;;;;;11.08;63.79;98975.09;10434909;28;20052;-79
2023/11/06 12:24:50;;;;;;;9.23;1.92;;;;;;;11.32;63.05;98991.34;10438416;28;20049;-81
2023/11/06 12:30:00;;;;;;;7.57;1.33;;;;;;;11.30;63.12;98992.50;10448662;28;20060;-79
2023/11/06 12:35:14;;;;;;;8.85;1.88;;;;;;;11.20;64.44;98990.78;10430309;28;20066;-80
2023/11/06 12:40:20;;;;;;;5.38;2.13;;;;;;;10.71;65.15;98995.06;10434884;28;20052;-83
2023/11/06 12:45:31;;;;;;;4.05;1.08;;;;;;;10.71;66.46;98992.38;10432834;28;20573;-79
2023/11/06 12:50:35;;;;;;;4.90;1.25;;;;;;;10.38;69.63;99003.75;10437086;28;20044;-79
2023/11/06 12:55:41;;;;;;;3.67;1.08;;;;;;;10.49;66.65;98993.75;10444193;28;21203;-79
2023/11/06 13:00:48;;;;;;;10.50;1.48;;;;;;;10.78;67.68;98990.75;10443387;28;20055;-79
2023/11/06 13:05:56;;;;;;;5.22;0.70;;;;;;;10.36;70.72;99003.03;10440329;28;20051;-79
2023/11/06 13:11:00;;;;;;;8.30;0.98;;;;;;;11.50;67.46;98991.22;10446850;28;20048;-80
2023/11/06 13:16:08;;;;;;;8.60;1.50;;;;;;;12.13;64.10;98982.56;10444067;28;20049;-78
2023/11/06 13:21:18;;;;;;;8.50;1.40;;;;;;;11.33;65.66;98997.56;10442101;28;20041;-75
2023/11/06 13:26:22;;;;;;;5.93;1.17;;;;;;;10.63;69.23;99006.59;10443803;28;20090;-79
2023/11/06 13:31:27;;;;;;;8.55;1.67;;;;;;;10.14;79.83;98992.81;10447534;28;20063;-79
2023/11/06 13:36:33;;;;;;;10.55;1.50;;;;;;;8.49;100.00;99005.31;10460609;28;20668;-81
2023/11/06 13:41:36;;;;;;;10.68;1.70;;;;;;;7.47;100.00;99015.56;10438529;28;20045;-78
2023/11/06 13:46:39;;;;;;;9.35;1.40;;;;;;;8.31;100.00;98999.84;10442759;28;20878;-78
2023/11/06 13:51:47;;;;;;;9.88;1.70;;;;;;;9.15;97.98;99000.84;10442577;28;20048;-80
2023/11/06 13:56:52;;;;;;;9.13;1.80;;;;;;;9.47;94.54;98997.69;10466537;28;20055;-80
2023/11/06 14:02:05;;;;;;;12.68;1.17;;;;;;;10.01;85.22;98997.72;10450807;28;20048;-80
2023/11/06 14:07:12;;;;;;;7.25;1.15;;;;;;;10.03;84.03;99007.31;10442531;28;20080;-79
2023/11/06 14:12:15;;;;;;;6.40;1.77;;;;;;;10.73;80.88;98990.38;10452159;28;20079;-80
2023/11/06 14:17:18;;;;;;;5.65;1.92;;;;;;;10.76;78.86;98992.75;10456551;28;20498;-79
2023/11/06 14:22:26;;;;;;;7.18;1.25;;;;;;;10.45;79.05;98992.38;10455662;28;20049;-78
2023/11/06 14:27:29;;;;;;;8.07;1.42;;;;;;;10.41;79.11;98993.69;10448960;28;20055;-80
2023/11/06 14:32:35;;;;;;;4.07;1.55;;;;;;;10.38;78.42;99002.91;10456522;28;20049;-80
2023/11/06 14:37:41;;;;;;;10.90;2.40;;;;;;;10.64;76.06;99010.13;10451295;28;20040;-81
2023/11/06 14:42:44;;;;;;;7.97;1.73;;;;;;;10.71;75.16;99009.31;10453512;28;20098;-78
2023/11/06 14:47:49;;;;;;;4.47;1.00;;;;;;;10.98;71.86;99007.47;10453536;28;20044;-79
2023/11/06 14:52:54;;;;;;;7.35;1.42;;;;;;;11.01;70.91;99004.47;10451357;28;20044;-81
2023/11/06 14:57:57;;;;;;;5.93;0.95;;;;;;;11.02;71.17;99006.97;10453533;28;20565;-80
2023/11/06 15:03:00;;;;;;;11.73;1.50;;;;;;;10.69;71.17;99015.84;10443145;28;20052;-80
2023/11/06 15:08:08;;;;;;;3.42;0.90;;;;;;;10.42;70.77;99020.38;10445590;28;20052;-78
2023/11/06 15:13:11;;;;;;;1.73;1.00;;;;;;;10.55;70.72;99028.03;10449854;28;20052;-80
2023/11/06 15:18:15;;;;;;;6.28;1.40;;;;;;;10.81;70.45;99026.19;10456472;28;20099;-81
2023/11/06 15:23:20;;;;;;;4.80;1.20;;;;;;;10.39;71.70;99037.66;10447312;28;20048;-80
2023/11/06 15:28:23;;;;;;;7.18;1.55;;;;;;;10.48;72.53;99027.81;10446515;28;20689;-84
2023/11/06 15:33:29;;;;;;;5.60;1.23;;;;;;;10.54;72.51;99031.72;10447514;28;20133;-79
2023/11/06 15:38:34;;;;;;;2.72;0.60;;;;;;;10.34;72.55;99023.03;10455866;28;20040;-82
2023/11/06 15:43:41;;;;;;;3.75;0.98;;;;;;;10.03;74.83;99038.66;10450364;28;20149;-81
2023/11/06 15:48:44;;;;;;;3.40;0.52;;;;;;;10.23;73.53;99033.97;10456997;28;20056;-83
2023/11/06 15:53:48;;;;;;;4.32;1.02;;;;;;;10.12;74.46;99030.56;10455245;28;20044;-82
2023/11/06 15:58:51;;;;;;;3.72;1.02;;;;;;;10.03;75.04;99031.44;10449452;28;21200;-84
2023/11/06 16:03:54;;;;;;;2.42;0.88;;;;;;;10.04;74.23;99025.13;10450451;28;20411;-80
2023/11/06 16:08:59;;;;;;;3.38;0.65;;;;;;;10.02;74.19;99047.72;10474332;28;20044;-82
2023/11/06 16:14:02;;;;;;;7.25;1.38;;;;;;;10.19;73.68;99041.50;10441666;28;21204;-79
2023/11/06 16:19:05;;;;;;;5.90;1.30;;;;;;;10.25;74.32;99043.56;10451166;28;20048;-82
2023/11/06 16:24:12;;;;;;;4.30;1.00;;;;;;;10.28;74.34;99047.78;10445883;28;20059;-83
2023/11/06 16:29:15;;;;;;;3.85;1.20;;;;;;;10.16;75.78;99049.84;10450270;28;20045;-79
2023/11/06 16:34:18;;;;;;;6.35;1.38;;;;;;;10.08;76.08;99055.97;10449353;28;20048;-84
2023/11/06 16:39:38;;;;;;;3.22;0.95;;;;;;;9.84;76.72;99071.81;10439026;28;20147;-80
2023/11/06 16:44:42;;;;;;;6.32;1.02;;;;;;;10.20;75.75;99063.81;10449444;28;20056;-82
2023/11/06 16:49:45;;;;;;;3.55;1.20;;;;;;;10.14;75.84;99070.63;10457835;28;20052;-81
2023/11/06 16:54:49;;;;;;;5.68;1.33;;;;;;;10.22;75.11;99076.06;10449630;28;20052;-82
2023/11/06 16:59:53;;;;;;;4.43;1.10;;;;;;;10.11;75.27;99084.34;10454008;28;21512;-80
2023/11/06 17:05:02;;;;;;;4.85;1.10;;;;;;;10.06;77.07;99090.16;10452097;28;20051;-79
2023/11/06 17:10:14;;;;;;;4.97;0.98;;;;;;;9.90;78.76;99084.63;10447874;28;20194;-84
2023/11/06 17:15:21;;;;;;;3.90;1.00;;;;;;;9.62;81.17;99095.34;10454754;28;20129;-84
2023/11/06 17:20:25;;;;;;;2.75;0.80;;;;;;;9.60;82.82;99105.41;10452210;28;20055;-82
2023/11/06 17:25:29;;;;;;;5.03;0.85;;;;;;;9.32;84.67;99109.06;10453593;28;20418;-82
2023/11/06 17:30:32;;;;;;;5.28;1.85;;;;;;;9.55;84.61;99113.06;10456753;28;20040;-82
2023/11/06 17:35:36;;;;;;;5.90;1.70;;;;;;;9.23;86.47;99133.06;10464806;28;20060;-79
2023/11/06 17:40:43;;;;;;;5.07;1.60;;;;;;;8.62;97.54;99144.19;10465400;28;20060;-81
2023/11/06 17:45:49;;;;;;;8.55;1.60;;;;;;;8.11;100.00;99153.28;10470861;28;20056;-82
2023/11/06 17:50:55;;;;;;;5.75;2.15;;;;;;;7.30;100.00;99172.00;10494824;28;20036;-80
2023/11/06 17:56:00;;;;;;;4.40;2.20;;;;;;;7.59;100.00;99196.19;10470344;28;20067;-79
2023/11/06 18:01:03;;;;;;;4.75;1.90;;;;;;;7.76;100.00;99191.19;10460221;28;20067;-82
2023/11/06 18:06:07;;;;;;;5.65;2.58;;;;;;;7.73;100.00;99198.50;10462277;28;20040;-83
2023/11/06 18:11:12;;;;;;;8.40;2.30;;;;;;;7.85;100.00;99201.91;10465341;28;20875;-81
2023/11/06 18:16:15;;;;;;;7.57;1.95;;;;;;;7.45;100.00;99208.06;10470452;28;20047;-81
2023/11/06 18:21:18;;;;;;;5.80;1.33;;;;;;;7.21;100.00;99218.19;10479482;28;20137;-80
2023/11/06 18:26:23;;;;;;;3.33;1.23;;;;;;;7.23;100.00;99222.44;10460152;28;21686;-81
2023/11/06 18:31:28;;;;;;;2.83;1.65;;;;;;;7.61;100.00;99225.47;10456295;28;20557;-83
2023/11/06 18:36:30;;;;;;;6.57;2.00;;;;;;;7.62;100.00;99233.31;10454969;28;20063;-82
2023/11/06 18:41:38;;;;;;;6.63;2.13;;;;;;;7.58;100.00;99239.09;10449153;28;20040;-83
2023/11/06 18:46:41;;;;;;;3.65;2.17;;;;;;;7.33;100.00;99245.69;10443506;28;21124;-80
2023/11/06 18:51:44;;;;;;;6.18;3.63;;;;;;;7.46;100.00;99257.00;10456543;28;20049;-80
2023/11/06 18:56:48;;;;;;;3.30;3.00;;;;;;;7.44;100.00;99277.69;10468805;28;20052;-80
2023/11/06 19:01:51;;;;;;;8.57;2.40;;;;;;;7.78;100.00;99277.44;10448782;28;20630;-81
2023/11/06 19:06:54;;;;;;;4.60;2.20;;;;;;;7.85;100.00;99279.44;10450470;28;20044;-80
2023/11/06 19:11:59;;;;;;;6.60;2.63;;;;;;;7.88;100.00;99294.38;10439999;28;20044;-79
2023/11/06 19:17:05;;;;;;;6.28;2.60;;;;;;;7.93;100.00;99292.16;10440511;28;20045;-77
2023/11/06 19:22:08;;;;;;;6.50;3.22;;;;;;;8.02;100.00;99294.00;10447777;28;20574;-79
2023/11/06 19:27:13;;;;;;;5.97;3.20;;;;;;;7.76;100.00;99296.28;10448282;28;20053;-79
2023/11/06 19:32:16;;;;;;;6.65;3.10;;;;;;;7.66;100.00;99298.06;10456891;28;20056;-81
2023/11/06 19:37:19;;;;;;;5.53;3.33;;;;;;;8.00;100.00;99298.66;10456172;28;20098;-80
2023/11/06 19:42:23;;;;;;;7.30;3.42;;;;;;;7.70;100.00;99313.69;10466579;28;20048;-80
2023/11/06 19:47:27;;;;;;;5.43;3.38;;;;;;;7.91;100.00;99318.19;10456388;28;20044;-81
2023/11/06 19:52:30;;;;;;;7.03;4.00;;;;;;;7.84;100.00;99330.38;10446887;28;20329;-83
2023/11/06 19:57:35;;;;;;;9.80;3.40;;;;;;;7.75;100.00;99328.50;10442002;28;20063;-81
2023/11/06 20:02:38;;;;;;;13.15;3.90;;;;;;;7.77;100.00;99334.56;10450894;28;20487;-80
2023/11/06 20:07:44;;;;;;;4.85;3.08;;;;;;;7.69;100.00;99336.06;10447454;28;20708;-81
2023/11/06 20:12:48;;;;;;;5.90;2.70;;;;;;;7.82;100.00;99343.88;10446185;28;20036;-81
2023/11/06 20:17:52;;;;;;;4.97;2.03;;;;;;;7.77;100.00;99364.81;10458501;28;20578;-81
2023/11/06 20:22:56;;;;;;;5.60;2.65;;;;;;;7.79;100.00;99359.31;10452166;28;20677;-81
2023/11/06 20:28:00;;;;;;;4.72;2.45;;;;;;;8.09;100.00;99359.38;10456937;28;20048;-82
2023/11/06 20:33:04;;;;;;;4.45;2.28;;;;;;;7.99;100.00;99384.38;10460059;28;20064;-82
2023/11/06 20:38:07;;;;;;;7.53;3.00;;;;;;;8.13;99.86;99376.00;10456137;28;20055;-79
2023/11/06 20:43:11;;;;;;;6.88;3.00;;;;;;;7.90;100.00;99370.81;10459174;28;20060;-80
2023/11/06 20:48:14;;;;;;;4.35;2.95;;;;;;;8.06;100.00;99382.84;10454795;28;20055;-79
2023/11/06 20:53:18;;;;;;;12.48;5.00;;;;;;;8.11;99.08;99392.16;10452428;28;20091;-82
2023/11/06 20:58:22;;;;;;;7.03;3.00;;;;;;;7.75;98.87;99395.34;10452580;28;20059;-81
2023/11/06 21:03:26;;;;;;;8.88;2.92;;;;;;;7.70;98.71;99393.03;10455191;28;20049;-80
2023/11/06 21:08:30;;;;;;;9.80;2.72;;;;;;;7.46;99.93;99404.84;10471902;28;20052;-78
2023/11/06 21:13:35;;;;;;;10.50;2.90;;;;;;;7.48;99.88;99394.84;10470120;28;20049;-82
2023/11/06 21:18:38;;;;;;;10.73;3.10;;;;;;;7.26;100.00;99406.47;10456889;28;20439;-80
2023/11/06 21:23:41;;;;;;;7.30;3.20;;;;;;;7.22;100.00;99404.19;10456935;28;20055;-79
2023/11/06 21:28:45;;;;;;;7.57;3.03;;;;;;;7.49;99.03;99409.06;10486988;28;20568;-80
2023/11/06 21:33:48;;;;;;;5.00;2.45;;;;;;;7.15;100.00;99409.19;10478304;28;20102;-82
2023/11/06 21:38:52;;;;;;;12.63;2.85;;;;;;;7.21;100.00;99414.03;10474378;28;20064;-80
2023/11/06 21:43:56;;;;;;;6.70;2.65;;;;;;;7.26;98.65;99410.97;10453417;28;20580;-80
2023/11/06 21:48:59;;;;;;;5.35;2.67;;;;;;;7.43;98.70;99422.94;10466796;28;20148;-82
2023/11/06 21:54:02;;;;;;;12.02;3.00;;;;;;;7.05;99.89;99425.13;10464494;28;20063;-80
2023/11/06 21:59:07;;;;;;;5.88;2.30;;;;;;;7.35;97.94;99431.59;10458345;27;20066;-81
2023/11/06 22:04:11;;;;;;;3.60;1.83;;;;;;;7.22;98.24;99429.09;10458245;28;20059;-79
2023/11/06 22:09:14;;;;;;;7.25;1.92;;;;;;;7.37;97.80;99443.00;10464766;28;20120;-80
2023/11/06 22:14:19;;;;;;;7.15;3.55;;;;;;;7.28;99.11;99433.91;10459743;28;20609;-81
2023/11/06 22:19:23;;;;;;;4.88;2.63;;;;;;;7.33;97.77;99436.22;10464023;28;21161;-81
2023/11/06 22:24:26;;;;;;;6.88;1.98;;;;;;;7.24;97.75;99448.50;10454990;28;20049;-81
2023/11/06 22:29:30;;;;;;;3.13;1.70;;;;;;;7.24;97.25;99461.88;10466905;28;20531;-81
2023/11/06 22:34:35;;;;;;;5.13;1.70;;;;;;;7.17;98.28;99465.16;10452731;28;20697;-80
2023/11/06 22:39:38;;;;;;;4.38;1.90;;;;;;;7.23;97.44;99459.31;10467703;28;20036;-81
2023/11/06 22:44:42;;;;;;;5.53;1.95;;;;;;;7.31;97.60;99462.19;10461493;28;20507;-82
2023/11/06 22:49:45;;;;;;;9.43;2.00;;;;;;;7.36;96.27;99473.34;10464004;28;20471;-83
2023/11/06 22:54:48;;;;;;;5.97;1.75;;;;;;;7.45;95.54;99471.75;10445286;28;20049;-83
2023/11/06 22:59:52;;;;;;;3.40;0.95;;;;;;;7.14;97.14;99487.63;10453179;28;20049;-81
2023/11/06 23:04:55;;;;;;;9.60;2.10;;;;;;;7.26;96.65;99481.25;10457202;28;20045;-81
2023/11/06 23:09:58;;;;;;;9.27;1.92;;;;;;;7.47;94.24;99478.66;10452780;28;20048;-82
2023/11/06 23:15:03;;;;;;;6.15;2.15;;;;;;;7.37;95.92;99476.88;10459806;28;20040;-80
2023/11/06 23:20:07;;;;;;;6.72;1.60;;;;;;;7.21;95.80;99488.84;10457454;28;20044;-82
2023/11/06 23:25:11;;;;;;;5.72;1.80;;;;;;;7.54;94.35;99486.16;10465428;28;21279;-81
2023/11/06 23:30:21;;;;;;;8.57;1.75;;;;;;;7.21;95.16;99495.97;10474273;28;20056;-83
2023/11/06 23:35:24;;;;;;;3.95;1.45;;;;;;;7.23;96.20;99488.69;10461181;28;20044;-80
2023/11/06 23:40:27;;;;;;;4.18;1.42;;;;;;;6.92;97.42;99493.00;10454930;28;20048;-81
2023/11/06 23:45:35;;;;;;;10.23;1.73;;;;;;;7.32;94.61;99495.09;10457198;28;20049;-80